Time;durP1;ratioP1;P1;durP2;ratioP2;P2;SDS_P1;SDS_P2;PMS_P1;PMS_P2;Temp;Humidity;BMP_temperature;BMP_pressure;BME280_temperature;BME280_humidity;BME280_pressure;Samples;Min_cycle;Max_cycle;Signal;HPM_P1;HPM_P2
2022/03/27 00:00:44;;;;;;;16.87;8.10;;;;;;;9.61;59.29;101265.66;1452344;87;22090;-78
2022/03/27 00:03:10;;;;;;;11.63;7.37;;;;;;;9.52;59.53;101265.52;1468641;86;22418;-77
2022/03/27 00:05:36;;;;;;;20.47;8.70;;;;;;;9.42;59.52;101269.37;1468680;87;21434;-78
2022/03/27 00:08:02;;;;;;;17.93;8.73;;;;;;;9.41;59.32;101250.52;1469758;86;21392;-80
2022/03/27 00:10:28;;;;;;;16.27;8.50;;;;;;;9.32;59.57;101256.05;1463278;87;21442;-80
2022/03/27 00:12:54;;;;;;;23.27;9.67;;;;;;;9.27;59.67;101252.91;1472572;87;21390;-80
2022/03/27 00:15:20;;;;;;;18.30;9.33;;;;;;;9.24;59.44;101253.16;1460020;87;23340;-80
2022/03/27 00:17:46;;;;;;;13.53;8.37;;;;;;;9.16;59.47;101270.91;1482008;87;22448;-80
2022/03/27 00:20:15;;;;;;;20.07;7.63;;;;;;;9.10;58.92;101260.81;1465431;87;22299;-80
2022/03/27 00:22:41;;;;;;;17.80;7.60;;;;;;;9.10;58.22;101257.34;1471888;87;23534;-80
2022/03/27 00:25:08;;;;;;;20.83;9.03;;;;;;;9.08;57.04;101259.25;1470528;88;21448;-80
2022/03/27 00:27:35;;;;;;;15.80;7.37;;;;;;;9.04;56.12;101264.77;1426881;90;22396;-80
2022/03/27 00:30:02;;;;;;;19.73;7.40;;;;;;;9.02;55.35;101266.67;1438058;90;21465;-81
2022/03/27 00:32:28;;;;;;;13.70;6.50;;;;;;;8.97;54.90;101272.77;1444342;88;22421;-80
2022/03/27 00:34:54;;;;;;;13.93;6.93;;;;;;;8.96;54.66;101281.66;1458300;88;21443;-81
2022/03/27 00:37:20;;;;;;;15.47;8.90;;;;;;;8.89;54.70;101281.78;1468643;88;21517;-81
2022/03/27 00:39:46;;;;;;;9.43;6.20;;;;;;;8.88;54.82;101280.08;1472178;88;21414;-81
2022/03/27 00:42:12;;;;;;;12.03;6.17;;;;;;;8.80;54.93;101282.45;1458235;86;22565;-80
2022/03/27 00:44:39;;;;;;;14.53;8.17;;;;;;;8.77;55.09;101287.47;1445751;90;21528;-80
2022/03/27 00:47:06;;;;;;;16.07;8.00;;;;;;;8.73;55.27;101278.60;1492962;87;21492;-81
2022/03/27 00:49:35;;;;;;;11.37;7.87;;;;;;;8.71;55.97;101277.86;1486272;87;21470;-78
2022/03/27 00:52:04;;;;;;;11.30;6.90;;;;;;;8.61;56.27;101287.44;1447668;90;21538;-78
2022/03/27 00:54:30;;;;;;;12.70;7.80;;;;;;;8.55;56.93;101290.05;1484034;87;21507;-79
2022/03/27 00:56:56;;;;;;;15.40;7.87;;;;;;;8.48;57.41;101287.48;1477259;87;21397;-78
2022/03/27 00:59:22;;;;;;;11.60;7.53;;;;;;;8.40;58.46;101288.07;1469482;88;21456;-79
2022/03/27 01:01:47;;;;;;;17.13;8.37;;;;;;;8.34;59.11;101291.97;1468505;88;22587;-79
2022/03/27 01:04:13;;;;;;;12.83;8.70;;;;;;;8.32;59.47;101296.98;1427918;90;21429;-79
2022/03/27 01:06:43;;;;;;;13.43;8.33;;;;;;;8.28;59.68;101283.64;1456094;88;21556;-79
2022/03/27 01:09:38;;;;;;;19.03;10.03;;;;;;;8.21;60.31;101289.84;1474243;88;21412;-79
2022/03/27 01:12:21;;;;;;;14.80;8.90;;;;;;;8.10;60.80;101285.34;1476790;87;21434;-79
2022/03/27 01:14:50;;;;;;;12.90;8.10;;;;;;;8.04;61.04;101278.36;1469586;87;21522;-79
2022/03/27 01:17:23;;;;;;;16.13;9.33;;;;;;;7.95;60.86;101282.50;1467172;88;21501;-79
2022/03/27 01:19:53;;;;;;;16.77;7.93;;;;;;;8.01;60.61;101291.76;1479999;88;22300;-77
2022/03/27 01:22:20;;;;;;;17.90;8.83;;;;;;;7.99;60.36;101291.02;1418422;90;21508;-78
2022/03/27 01:24:49;;;;;;;15.13;9.33;;;;;;;7.95;60.17;101298.80;1469821;87;22005;-78
2022/03/27 01:27:15;;;;;;;19.27;8.50;;;;;;;7.95;59.66;101303.58;1470247;88;23062;-79
2022/03/27 01:29:41;;;;;;;14.97;8.07;;;;;;;7.94;59.65;101304.55;1431466;90;21487;-79
2022/03/27 01:32:11;;;;;;;16.57;8.77;;;;;;;7.92;59.71;101306.44;1417790;91;22475;-79
2022/03/27 01:34:38;;;;;;;15.38;8.73;;;;;;;7.88;59.64;101323.41;1500531;87;21478;-80
2022/03/27 01:37:08;;;;;;;20.53;8.60;;;;;;;7.84;59.83;101328.06;1493543;87;21389;-80
2022/03/27 01:39:35;;;;;;;17.12;8.08;;;;;;;7.86;59.77;101342.45;1496526;87;24039;-78
2022/03/27 01:42:03;;;;;;;12.87;7.10;;;;;;;7.76;59.95;101342.72;1468828;87;21471;-77
2022/03/27 01:44:29;;;;;;;16.13;6.80;;;;;;;7.65;60.43;101338.19;1468335;88;22132;-78
2022/03/27 01:46:56;;;;;;;19.40;7.67;;;;;;;7.65;60.43;101338.19;1469269;88;21434;-77
2022/03/27 01:49:24;;;;;;;17.90;7.87;;;;;;;7.63;60.51;101342.27;1472598;87;23169;-78
2022/03/27 01:51:51;;;;;;;19.17;8.23;;;;;;;7.62;60.65;101328.30;1479603;88;22139;-77
2022/03/27 01:54:19;;;;;;;15.03;8.23;;;;;;;7.56;60.57;101328.30;1473574;88;21412;-77
2022/03/27 01:56:45;;;;;;;16.10;9.60;;;;;;;7.48;61.16;101329.30;1418648;90;22544;-78
2022/03/27 01:59:12;;;;;;;18.07;8.40;;;;;;;7.53;61.17;101320.12;1478136;87;21477;-77
2022/03/27 02:01:38;;;;;;;18.47;7.90;;;;;;;7.48;61.26;101324.89;1480587;87;22170;-78
2022/03/27 02:04:06;;;;;;;20.60;8.33;;;;;;;7.49;61.35;101334.47;1469905;88;22087;-78
2022/03/27 02:06:35;;;;;;;15.13;7.83;;;;;;;7.50;61.20;101333.98;1473326;88;22087;-77
2022/03/27 02:09:02;;;;;;;14.00;6.40;;;;;;;7.48;60.91;101339.38;1469105;88;22132;-78
2022/03/27 02:11:28;;;;;;;20.87;10.13;;;;;;;7.46;60.93;101343.91;1476987;88;21515;-78
2022/03/27 02:13:54;;;;;;;13.60;8.13;;;;;;;7.44;60.97;101341.36;1473690;88;22125;-78
2022/03/27 02:16:20;;;;;;;12.37;8.23;;;;;;;7.45;60.47;101353.60;1465778;88;22995;-78
2022/03/27 02:18:46;;;;;;;16.40;8.10;;;;;;;7.45;60.35;101348.78;1469092;87;22399;-78
2022/03/27 02:21:12;;;;;;;12.53;7.83;;;;;;;7.36;60.51;101351.56;1466452;88;22402;-80
2022/03/27 02:23:38;;;;;;;19.50;9.47;;;;;;;7.36;60.40;101349.41;1451908;88;22175;-80
2022/03/27 02:26:05;;;;;;;14.27;8.20;;;;;;;7.37;60.40;101355.07;1443918;89;22133;-80
2022/03/27 02:28:33;;;;;;;15.13;8.53;;;;;;;7.37;60.40;101355.07;1467053;88;21493;-80
2022/03/27 02:30:59;;;;;;;14.33;10.20;;;;;;;7.38;60.58;101352.80;1464519;87;22154;-80
2022/03/27 02:33:25;;;;;;;9.80;6.33;;;;;;;7.35;60.31;101364.86;1466301;88;23663;-79
2022/03/27 02:35:51;;;;;;;17.20;9.67;;;;;;;7.32;60.31;101356.69;1466130;88;21420;-79
2022/03/27 02:38:17;;;;;;;14.10;9.37;;;;;;;7.36;59.90;101361.27;1465209;88;21595;-79
2022/03/27 02:40:45;;;;;;;14.40;7.70;;;;;;;7.35;60.21;101361.74;1473346;88;22198;-80
2022/03/27 02:43:11;;;;;;;25.03;8.20;;;;;;;7.33;60.52;101361.48;1471254;87;22197;-79
2022/03/27 02:45:38;;;;;;;15.97;7.37;;;;;;;7.33;60.67;101366.74;1467758;88;22184;-80
2022/03/27 02:48:05;;;;;;;10.60;6.77;;;;;;;7.30;60.91;101374.84;1471905;88;22295;-79
2022/03/27 02:50:32;;;;;;;16.20;7.63;;;;;;;7.26;61.12;101379.97;1464107;88;22149;-79
2022/03/27 02:52:59;;;;;;;14.00;8.83;;;;;;;7.23;61.23;101379.70;1449678;88;22175;-79
2022/03/27 02:55:26;;;;;;;12.87;8.43;;;;;;;7.18;61.56;101379.98;1470150;87;22271;-80
2022/03/27 02:57:54;;;;;;;11.90;7.73;;;;;;;7.18;61.63;101387.05;1471190;87;22087;-80
2022/03/27 03:00:22;;;;;;;13.67;8.20;;;;;;;7.12;61.67;101386.98;1483808;87;22019;-80
2022/03/27 03:02:48;;;;;;;16.33;8.90;;;;;;;7.13;61.17;101395.72;1473940;87;22196;-80
2022/03/27 03:05:15;;;;;;;14.43;6.70;;;;;;;7.08;61.19;101409.20;1424013;90;23100;-81
2022/03/27 03:07:42;;;;;;;17.87;7.00;;;;;;;7.01;61.13;101407.42;1483835;87;22035;-80
2022/03/27 03:10:10;;;;;;;12.60;7.07;;;;;;;6.97;61.12;101413.02;1470884;88;22191;-81
2022/03/27 03:12:36;;;;;;;18.80;8.43;;;;;;;6.95;61.08;101428.89;1464748;88;22218;-80
2022/03/27 03:15:04;;;;;;;16.07;8.37;;;;;;;6.89;61.10;101428.45;1470478;88;22124;-80
2022/03/27 03:17:30;;;;;;;14.83;8.57;;;;;;;6.84;60.94;101425.27;1423720;91;22294;-80
2022/03/27 03:19:56;;;;;;;13.33;8.63;;;;;;;6.80;60.52;101427.73;1462570;88;23125;-80
2022/03/27 03:22:23;;;;;;;12.20;8.07;;;;;;;6.76;60.64;101427.06;1477042;87;22153;-80
2022/03/27 03:24:50;;;;;;;14.20;7.60;;;;;;;6.71;60.41;101424.75;1473112;87;22174;-80
2022/03/27 03:27:17;;;;;;;9.67;6.27;;;;;;;6.67;59.91;101446.91;1474700;87;22152;-80
2022/03/27 03:29:43;;;;;;;12.43;7.90;;;;;;;6.59;60.21;101458.42;1470969;88;22287;-80
2022/03/27 03:32:09;;;;;;;15.53;8.23;;;;;;;6.59;60.21;101458.42;1464744;88;22210;-80
2022/03/27 03:34:36;;;;;;;13.30;7.30;;;;;;;6.49;59.27;101442.35;1468677;88;22184;-80
2022/03/27 03:37:03;;;;;;;11.00;7.10;;;;;;;6.44;59.25;101441.79;1478505;87;21867;-80
2022/03/27 03:39:29;;;;;;;11.13;7.33;;;;;;;6.44;59.25;101441.79;1470923;88;21995;-80
2022/03/27 03:41:55;;;;;;;8.93;6.10;;;;;;;6.48;58.84;101447.73;1467707;87;22322;-80
2022/03/27 03:44:22;;;;;;;16.50;7.73;;;;;;;6.41;58.89;101435.89;1413129;91;22199;-79
2022/03/27 03:46:48;;;;;;;20.73;9.00;;;;;;;6.42;58.35;101435.80;1471849;87;22213;-81
2022/03/27 03:49:14;;;;;;;17.70;8.63;;;;;;;6.32;58.44;101443.40;1468602;88;22178;-80
2022/03/27 03:51:40;;;;;;;17.63;6.63;;;;;;;6.32;58.44;101443.40;1465128;88;22001;-80
2022/03/27 03:54:09;;;;;;;12.83;7.40;;;;;;;6.39;56.84;101439.07;1462664;87;22206;-80
2022/03/27 03:56:38;;;;;;;17.47;8.47;;;;;;;6.33;57.21;101449.53;1467448;87;22780;-79
2022/03/27 03:59:05;;;;;;;13.27;6.67;;;;;;;6.33;57.21;101449.53;1413357;91;22273;-79
2022/03/27 04:01:31;;;;;;;17.27;6.93;;;;;;;6.29;56.73;101447.53;1428073;90;21859;-80
2022/03/27 04:03:57;;;;;;;10.97;6.23;;;;;;;6.27;56.71;101465.66;1444872;90;22784;-80
2022/03/27 04:06:23;;;;;;;11.70;7.40;;;;;;;6.27;56.34;101466.53;1421436;90;23196;-80
2022/03/27 04:08:49;;;;;;;12.87;6.87;;;;;;;6.23;56.18;101476.84;1463329;88;21965;-80
2022/03/27 04:11:18;;;;;;;17.00;6.23;;;;;;;6.20;55.66;101472.25;1465476;87;21389;-80
2022/03/27 04:13:45;;;;;;;16.83;6.60;;;;;;;6.19;55.48;101478.45;1469759;88;21501;-77
2022/03/27 04:16:13;;;;;;;21.70;8.73;;;;;;;6.15;55.41;101484.81;1408256;91;21887;-78
2022/03/27 04:18:40;;;;;;;18.43;9.17;;;;;;;6.16;55.23;101490.00;1465898;88;22016;-78
2022/03/27 04:21:06;;;;;;;13.20;8.17;;;;;;;6.06;55.14;101488.84;1468598;87;22200;-78
2022/03/27 04:23:33;;;;;;;11.53;7.47;;;;;;;6.06;55.14;101488.84;1484280;87;22700;-78
2022/03/27 04:26:00;;;;;;;14.10;9.23;;;;;;;6.04;55.36;101492.03;1463662;88;21891;-78
2022/03/27 04:28:25;;;;;;;19.63;7.87;;;;;;;5.97;55.66;101502.07;1475224;87;21922;-79
2022/03/27 04:30:52;;;;;;;15.63;7.97;;;;;;;5.91;56.03;101508.98;1474648;87;21815;-79
2022/03/27 04:33:17;;;;;;;14.63;8.97;;;;;;;5.83;56.32;101510.73;1468315;88;21412;-78
2022/03/27 04:35:44;;;;;;;15.57;8.80;;;;;;;5.80;56.64;101527.99;1468427;88;22010;-78
2022/03/27 04:38:10;;;;;;;17.30;10.27;;;;;;;5.70;56.29;101533.42;1474353;87;21456;-79
2022/03/27 04:40:36;;;;;;;20.17;10.47;;;;;;;5.70;56.36;101557.06;1458875;88;21745;-80
2022/03/27 04:43:03;;;;;;;17.13;9.67;;;;;;;5.70;56.36;101557.06;1418649;91;21852;-79
2022/03/27 04:45:29;;;;;;;14.10;8.80;;;;;;;5.68;56.08;101551.05;1427739;90;21735;-79
2022/03/27 04:47:55;;;;;;;27.83;15.10;;;;;;;5.63;55.81;101557.02;1461023;88;21917;-79
2022/03/27 04:50:21;;;;;;;15.13;8.70;;;;;;;5.61;56.24;101563.69;1454096;88;21640;-79
2022/03/27 04:52:47;;;;;;;25.87;11.00;;;;;;;5.58;55.69;101570.88;1464157;88;21714;-81
2022/03/27 04:55:13;;;;;;;21.10;11.60;;;;;;;5.59;55.67;101562.92;1471119;88;22097;-80
2022/03/27 04:57:41;;;;;;;15.40;7.93;;;;;;;5.52;55.63;101562.87;1467908;88;21442;-80
2022/03/27 05:00:10;;;;;;;14.07;7.60;;;;;;;5.51;55.38;101563.83;1455777;88;21464;-79
2022/03/27 05:02:39;;;;;;;20.87;9.57;;;;;;;5.50;55.07;101561.30;1464414;88;21725;-79
2022/03/27 05:05:07;;;;;;;17.50;7.90;;;;;;;5.56;55.04;101561.79;1462060;88;21820;-78
2022/03/27 05:07:36;;;;;;;16.43;6.93;;;;;;;5.57;54.97;101573.13;1473405;88;21906;-79
2022/03/27 05:10:04;;;;;;;21.77;7.73;;;;;;;5.51;54.01;101577.42;1449340;87;21815;-77
2022/03/27 05:12:30;;;;;;;17.37;7.50;;;;;;;5.54;53.83;101575.94;1404001;91;21785;-76
2022/03/27 05:14:57;;;;;;;13.63;5.67;;;;;;;5.52;52.86;101583.05;1457496;89;22638;-79
2022/03/27 05:17:23;;;;;;;12.00;5.67;;;;;;;5.56;52.77;101587.21;1466977;88;21733;-78
2022/03/27 05:19:49;;;;;;;16.43;6.83;;;;;;;5.53;52.85;101606.61;1466965;88;21886;-78
2022/03/27 05:22:16;;;;;;;12.97;5.60;;;;;;;5.48;52.63;101598.61;1466971;87;21879;-78
2022/03/27 05:24:45;;;;;;;13.97;7.27;;;;;;;5.55;51.78;101623.58;1468782;88;22717;-77
2022/03/27 05:27:12;;;;;;;13.70;6.90;;;;;;;5.53;51.27;101620.21;1472488;88;21741;-78
2022/03/27 05:29:38;;;;;;;8.57;5.27;;;;;;;5.52;50.71;101625.91;1460763;88;21845;-77
2022/03/27 05:32:06;;;;;;;12.03;6.63;;;;;;;5.49;50.79;101637.05;1461802;88;21696;-77
2022/03/27 05:34:32;;;;;;;12.33;5.50;;;;;;;5.51;49.81;101638.66;1468236;88;21812;-78
2022/03/27 05:36:58;;;;;;;12.87;5.80;;;;;;;5.51;49.20;101645.23;1456676;88;21705;-78
2022/03/27 05:39:24;;;;;;;11.43;5.10;;;;;;;5.54;48.96;101661.28;1481216;88;21962;-78
2022/03/27 05:41:51;;;;;;;5.13;3.00;;;;;;;5.49;48.07;101669.88;1458919;87;21797;-78
2022/03/27 05:44:17;;;;;;;7.70;3.90;;;;;;;5.46;45.07;101659.55;1465231;89;22611;-77
2022/03/27 05:46:43;;;;;;;12.60;3.80;;;;;;;5.47;42.46;101648.09;1463163;88;21905;-77
2022/03/27 05:49:09;;;;;;;4.40;2.13;;;;;;;5.50;41.83;101647.95;1472635;88;21636;-77
2022/03/27 05:51:35;;;;;;;13.90;4.40;;;;;;;5.51;40.91;101645.70;1469100;88;22335;-77
2022/03/27 05:54:00;;;;;;;10.03;4.00;;;;;;;5.57;40.85;101658.48;1472580;88;21691;-77
2022/03/27 05:56:26;;;;;;;5.00;2.43;;;;;;;5.56;39.16;101663.38;1458840;88;21449;-78
2022/03/27 05:58:52;;;;;;;13.80;3.10;;;;;;;5.52;37.99;101667.92;1466508;88;22359;-79
2022/03/27 06:01:18;;;;;;;7.77;3.67;;;;;;;5.48;37.57;101681.33;1454114;88;21869;-79
2022/03/27 06:03:44;;;;;;;8.53;2.80;;;;;;;5.52;38.19;101686.77;1471198;88;21783;-79
2022/03/27 06:06:10;;;;;;;9.63;3.80;;;;;;;5.47;37.63;101690.11;1474315;88;21442;-78
2022/03/27 06:08:36;;;;;;;3.70;1.90;;;;;;;5.41;37.15;101697.42;1458725;88;21808;-79
2022/03/27 06:11:02;;;;;;;6.17;1.93;;;;;;;5.34;35.21;101697.34;1452968;88;22579;-80
2022/03/27 06:13:28;;;;;;;16.93;2.63;;;;;;;5.39;35.35;101701.89;1474534;88;21770;-78
2022/03/27 06:15:54;;;;;;;9.97;2.20;;;;;;;5.38;35.50;101701.52;1468684;87;21464;-79
2022/03/27 06:18:21;;;;;;;4.30;2.07;;;;;;;5.39;35.10;101704.52;1409155;91;21509;-78
2022/03/27 06:20:47;;;;;;;8.97;2.93;;;;;;;5.39;35.00;101701.89;1466943;88;21780;-78
2022/03/27 06:23:13;;;;;;;8.50;3.77;;;;;;;5.50;35.89;101697.85;1467726;87;21890;-78
2022/03/27 06:25:39;;;;;;;3.93;2.00;;;;;;;5.53;35.47;101705.56;1408899;91;21905;-79
2022/03/27 06:28:06;;;;;;;4.17;1.80;;;;;;;5.53;35.47;101705.56;1473666;88;22831;-78
2022/03/27 06:30:35;;;;;;;16.33;2.50;;;;;;;5.60;34.71;101716.09;1417162;91;21787;-78
2022/03/27 06:33:02;;;;;;;7.30;2.60;;;;;;;5.60;34.63;101721.34;1433966;91;22779;-78
2022/03/27 06:35:29;;;;;;;10.73;3.03;;;;;;;5.76;34.89;101717.42;1437786;90;22096;-78
2022/03/27 06:37:56;;;;;;;5.17;1.97;;;;;;;5.83;33.75;101727.48;1455653;87;22003;-78
2022/03/27 06:40:22;;;;;;;3.53;1.47;;;;;;;5.74;33.36;101724.53;1446564;88;23155;-78
2022/03/27 06:42:49;;;;;;;6.73;1.83;;;;;;;5.74;33.36;101724.53;1458765;88;22728;-78
2022/03/27 06:45:17;;;;;;;7.10;1.90;;;;;;;5.63;33.71;101730.38;1473498;88;21968;-78
2022/03/27 06:47:45;;;;;;;6.77;2.40;;;;;;;5.61;33.36;101732.22;1478066;87;22059;-78
2022/03/27 06:50:13;;;;;;;14.00;3.27;;;;;;;5.81;33.36;101732.00;1435096;90;22019;-78
2022/03/27 06:52:40;;;;;;;6.50;1.30;;;;;;;5.75;32.21;101715.71;1488310;87;24002;-77
2022/03/27 06:55:08;;;;;;;10.83;1.57;;;;;;;5.75;32.21;101715.71;1472016;87;22976;-77
2022/03/27 06:57:37;;;;;;;15.93;2.17;;;;;;;5.83;32.05;101730.59;1471259;88;22154;-77
2022/03/27 07:03:09;;;;;;;4.53;0.90;;;;;;;5.94;31.69;101707.70;1487315;87;22202;-78
2022/03/27 07:05:43;;;;;;;2.47;1.40;;;;;;;6.09;31.45;101716.02;1481265;87;22190;-77
2022/03/27 07:08:19;;;;;;;5.07;1.40;;;;;;;6.05;31.15;101710.56;1427024;90;22196;-77
2022/03/27 07:10:48;;;;;;;9.23;1.70;;;;;;;6.18;30.59;101720.74;1453175;90;22160;-77
2022/03/27 07:13:17;;;;;;;5.40;1.53;;;;;;;6.18;30.59;101720.74;1469725;87;22118;-78
2022/03/27 07:15:46;;;;;;;5.97;1.30;;;;;;;6.28;30.32;101711.41;1446336;90;22227;-77
2022/03/27 07:18:14;;;;;;;9.10;1.60;;;;;;;6.29;29.57;101702.58;1482976;87;23165;-77
2022/03/27 07:20:42;;;;;;;3.23;2.17;;;;;;;6.40;29.80;101700.64;1479083;87;22602;-77
2022/03/27 07:23:15;;;;;;;5.50;1.40;;;;;;;6.49;30.24;101694.84;1430401;90;22191;-77
2022/03/27 07:25:45;;;;;;;7.03;1.33;;;;;;;6.52;29.46;101703.02;1444253;90;22205;-77
2022/03/27 07:28:13;;;;;;;4.00;1.80;;;;;;;6.62;28.48;101709.45;1475195;87;22204;-77
2022/03/27 07:30:41;;;;;;;6.37;1.90;;;;;;;6.57;29.15;101718.07;1471388;88;23026;-77
2022/03/27 07:33:08;;;;;;;6.10;2.23;;;;;;;6.89;29.51;101731.09;1470386;88;22123;-77
2022/03/27 07:35:34;;;;;;;6.47;1.43;;;;;;;7.20;27.30;101744.09;1473149;88;22146;-77
2022/03/27 07:38:02;;;;;;;5.03;2.13;;;;;;;7.20;27.30;101744.09;1432433;90;21467;-77
2022/03/27 07:40:30;;;;;;;6.90;1.57;;;;;;;7.43;28.68;101756.33;1471498;88;22117;-77
2022/03/27 07:42:57;;;;;;;4.30;1.27;;;;;;;7.34;27.29;101754.27;1469610;88;22042;-77
2022/03/27 07:45:27;;;;;;;2.30;1.10;;;;;;;7.41;28.04;101749.83;1469283;88;22373;-77
2022/03/27 07:47:55;;;;;;;6.47;1.60;;;;;;;7.38;26.31;101761.87;1465055;87;21627;-77
2022/03/27 07:50:24;;;;;;;3.57;1.17;;;;;;;7.30;25.43;101765.91;1470447;87;21419;-75
2022/03/27 07:52:51;;;;;;;2.90;1.03;;;;;;;7.29;25.74;101778.23;1481275;87;22374;-76
2022/03/27 07:55:20;;;;;;;6.57;1.67;;;;;;;7.44;26.72;101781.24;1469435;88;23516;-76
2022/03/27 07:57:46;;;;;;;7.90;1.00;;;;;;;7.60;25.85;101779.84;1466598;88;21442;-79
2022/03/27 08:00:16;;;;;;;4.93;1.50;;;;;;;7.58;25.53;101781.72;1457636;88;22402;-79
2022/03/27 08:02:46;;;;;;;8.03;1.50;;;;;;;7.77;24.27;101781.88;1457506;88;21464;-78
2022/03/27 08:05:13;;;;;;;3.33;1.27;;;;;;;7.75;23.52;101766.65;1467803;88;21456;-84
2022/03/27 08:07:51;;;;;;;3.90;1.70;;;;;;;8.08;26.47;101776.34;1474861;87;22772;-87
2022/03/27 08:10:18;;;;;;;2.43;0.97;;;;;;;7.86;25.10;101764.19;1460934;88;22343;-88
2022/03/27 08:12:46;;;;;;;3.73;1.20;;;;;;;7.92;25.87;101765.11;1414231;91;21532;-88
2022/03/27 08:15:12;;;;;;;5.17;1.00;;;;;;;8.11;26.20;101769.59;1433650;89;21523;-87
2022/03/27 08:17:38;;;;;;;12.30;1.70;;;;;;;8.13;22.92;101764.20;1458318;88;21389;-87
2022/03/27 08:20:06;;;;;;;14.60;5.17;;;;;;;8.28;23.31;101764.98;1464660;88;21390;-88
2022/03/27 08:22:33;;;;;;;7.63;2.60;;;;;;;8.42;23.33;101752.25;1403913;91;21458;-88
2022/03/27 08:24:59;;;;;;;16.20;2.03;;;;;;;8.48;23.42;101751.36;1468988;86;22381;-87
2022/03/27 08:27:27;;;;;;;4.53;2.27;;;;;;;8.74;22.12;101745.66;1450924;88;21442;-86
2022/03/27 08:29:53;;;;;;;12.40;1.60;;;;;;;8.92;21.01;101750.19;1440339;88;22352;-77
2022/03/27 08:32:19;;;;;;;5.77;1.33;;;;;;;8.98;21.05;101751.08;1456287;88;21531;-78
2022/03/27 08:34:48;;;;;;;4.17;0.93;;;;;;;8.80;19.95;101749.67;1461433;88;22085;-77
2022/03/27 08:37:16;;;;;;;9.87;2.20;;;;;;;8.62;20.41;101758.84;1391528;88;21391;-77
2022/03/27 08:39:45;;;;;;;15.00;3.83;;;;;;;8.40;20.55;101760.73;1365010;89;21428;-77
2022/03/27 08:42:16;;;;;;;9.30;1.70;;;;;;;8.44;21.09;101764.39;1394595;91;21362;-77
2022/03/27 08:44:42;;;;;;;6.50;1.00;;;;;;;8.34;19.73;101763.27;1493377;87;21347;-77
2022/03/27 08:47:23;;;;;;;22.30;10.07;;;;;;;8.25;19.82;101757.28;1490839;88;21368;-77
2022/03/27 08:50:03;;;;;;;;;;;;;;;8.43;20.63;101746.89;1569865;87;21375;-77
2022/03/27 08:53:06;;;;;;;3.77;1.87;;;;;;;8.56;20.64;101750.38;1555332;87;20223;-77
2022/03/27 08:56:01;;;;;;;3.67;1.47;;;;;;;8.88;21.15;101756.61;1490954;88;21362;-78
2022/03/27 08:58:38;;;;;;;2.37;0.93;;;;;;;8.81;19.70;101754.03;1520566;87;21433;-77
2022/03/27 09:01:05;;;;;;;4.00;1.50;;;;;;;8.68;19.63;101761.07;1569491;87;21398;-77
2022/03/27 09:03:32;;;;;;;8.63;2.67;;;;;;;8.80;20.31;101752.31;1476716;88;21338;-77
2022/03/27 09:06:00;;;;;;;9.17;1.63;;;;;;;9.00;21.82;101767.64;1503190;88;21367;-77
2022/03/27 09:08:26;;;;;;;9.30;1.77;;;;;;;8.91;20.63;101761.68;1499332;90;21310;-77
2022/03/27 09:10:52;;;;;;;11.47;3.07;;;;;;;8.92;20.84;101768.67;1414246;87;21376;-77
2022/03/27 09:13:20;;;;;;;5.70;1.90;;;;;;;9.09;21.01;101766.65;1408881;89;21420;-78
2022/03/27 09:16:01;;;;;;;1.90;0.90;;;;;;;9.13;20.18;101776.91;1424206;90;21332;-78
2022/03/27 09:18:52;;;;;;;4.60;1.67;;;;;;;8.77;19.50;101784.20;1508189;88;21309;-77
2022/03/27 09:21:17;;;;;;;16.97;7.03;;;;;;;8.92;20.20;101775.27;1402508;88;21383;-78
2022/03/27 09:23:43;;;;;;;2.17;1.10;;;;;;;9.04;20.78;101782.35;1435841;87;22417;-77
2022/03/27 09:26:16;;;;;;;5.17;2.23;;;;;;;9.03;19.67;101775.39;1486334;87;21486;-77
2022/03/27 09:28:46;;;;;;;3.47;0.90;;;;;;;9.29;20.34;101776.69;1475271;88;23359;-77
2022/03/27 09:31:23;;;;;;;9.73;1.30;;;;;;;9.12;19.70;101783.61;1476208;88;22343;-77
2022/03/27 09:34:00;;;;;;;10.00;1.67;;;;;;;9.34;18.26;101774.58;1470919;88;21435;-78
2022/03/27 09:36:32;;;;;;;3.33;1.07;;;;;;;9.26;18.52;101775.58;1475892;87;21500;-77
2022/03/27 09:39:13;;;;;;;2.83;1.20;;;;;;;9.53;18.65;101774.62;1468195;88;21493;-77
2022/03/27 09:41:52;;;;;;;3.37;1.42;;;;;;;9.43;18.16;101796.88;1432811;90;21385;-78
2022/03/27 09:44:23;;;;;;;1.83;0.70;;;;;;;9.23;19.10;101795.61;1420972;91;21437;-79
2022/03/27 09:46:57;;;;;;;7.15;1.17;;;;;;;9.41;20.31;101794.83;1464986;88;21471;-79
2022/03/27 09:49:38;;;;;;;1.47;0.87;;;;;;;9.48;19.92;101780.22;1461922;87;21456;-80
2022/03/27 09:52:09;;;;;;;2.33;1.12;;;;;;;9.32;19.72;101779.59;1466968;87;21411;-80
2022/03/27 09:55:01;;;;;;;3.87;0.70;;;;;;;9.47;19.68;101758.73;1468217;88;21471;-79
2022/03/27 09:57:40;;;;;;;4.30;0.93;;;;;;;9.85;19.38;101752.02;1470938;87;21478;-80
2022/03/27 10:00:16;;;;;;;3.70;1.43;;;;;;;10.04;18.88;101749.35;1479605;87;21242;-80
2022/03/27 10:02:45;;;;;;;1.90;1.10;;;;;;;9.91;18.44;101748.93;1475737;87;21419;-79
2022/03/27 10:05:14;;;;;;;4.87;1.20;;;;;;;9.85;17.85;101748.53;1493554;86;23360;-80
2022/03/27 10:07:53;;;;;;;1.47;0.83;;;;;;;10.18;17.91;101738.60;1473595;87;22255;-80
2022/03/27 10:10:24;;;;;;;6.70;1.70;;;;;;;10.05;18.74;101746.61;1479754;86;21477;-81
2022/03/27 10:12:53;;;;;;;3.93;1.20;;;;;;;10.31;18.41;101722.23;1476505;88;22491;-79
2022/03/27 10:15:22;;;;;;;2.80;0.80;;;;;;;10.46;17.64;101733.95;1557675;86;21265;-80
2022/03/27 10:18:00;;;;;;;2.10;1.03;;;;;;;10.33;17.31;101736.20;1421689;88;21301;-79
2022/03/27 10:20:33;;;;;;;5.23;1.50;;;;;;;10.35;17.89;101736.07;1505715;91;22257;-79
2022/03/27 10:23:19;;;;;;;1.27;0.80;;;;;;;10.44;17.95;101741.16;1491744;88;21427;-79
2022/03/27 10:25:53;;;;;;;5.30;1.60;;;;;;;10.41;17.97;101737.42;1556281;88;21383;-79
2022/03/27 10:28:20;;;;;;;5.33;1.10;;;;;;;10.51;17.48;101743.72;1556168;87;21279;-79
2022/03/27 10:30:52;;;;;;;4.20;1.27;;;;;;;10.65;17.53;101740.88;1451670;88;22231;-79
2022/03/27 10:33:20;;;;;;;5.37;0.83;;;;;;;10.80;17.27;101734.41;1555712;87;21265;-79
2022/03/27 10:36:16;;;;;;;4.43;1.70;;;;;;;11.18;17.38;101727.95;1504128;88;21419;-79
2022/03/27 10:39:08;;;;;;;4.53;1.13;;;;;;;11.47;17.14;101721.68;1488714;87;21620;-79
2022/03/27 10:41:52;;;;;;;7.90;1.40;;;;;;;11.49;16.80;101733.50;1479914;87;21537;-79
2022/03/27 10:44:30;;;;;;;1.93;0.90;;;;;;;11.69;16.85;101735.41;1434422;87;22328;-79
2022/03/27 10:47:12;;;;;;;6.83;1.13;;;;;;;11.72;15.82;101747.58;1466097;88;21765;-79
2022/03/27 10:49:39;;;;;;;3.77;1.27;;;;;;;11.43;15.98;101737.97;1460344;88;21566;-79
2022/03/27 10:52:06;;;;;;;2.27;1.10;;;;;;;11.39;16.87;101745.30;1467154;87;22358;-79
2022/03/27 10:54:58;;;;;;;12.27;1.77;;;;;;;11.72;17.97;101740.45;1395456;88;21410;-79
2022/03/27 10:57:34;;;;;;;1.10;0.60;;;;;;;12.22;16.99;101740.48;1499583;90;21375;-79
2022/03/27 11:00:02;;;;;;;7.83;1.07;;;;;;;11.95;16.69;101732.49;1412550;90;21449;-79
2022/03/27 11:02:49;;;;;;;1.50;0.80;;;;;;;12.02;17.14;101742.11;1434521;90;22348;-78
2022/03/27 11:05:41;;;;;;;4.03;1.13;;;;;;;11.82;15.84;101750.32;1484853;87;21567;-79
2022/03/27 11:08:22;;;;;;;7.93;1.20;;;;;;;12.17;17.29;101737.73;1482646;87;21441;-78
2022/03/27 11:10:59;;;;;;;2.97;0.87;;;;;;;12.41;16.46;101731.36;1425867;89;21435;-79
2022/03/27 11:13:33;;;;;;;6.90;1.10;;;;;;;12.82;16.33;101729.19;1425474;87;21375;-79
2022/03/27 11:16:05;;;;;;;1.20;0.80;;;;;;;12.97;17.08;101721.72;1514326;88;21529;-79
2022/03/27 11:18:45;;;;;;;5.10;1.43;;;;;;;12.93;16.56;101714.16;1392534;88;21441;-78
2022/03/27 11:21:29;;;;;;;3.03;0.83;;;;;;;12.53;16.24;101703.77;1484323;88;21428;-79
2022/03/27 11:24:05;;;;;;;3.03;0.73;;;;;;;12.53;16.24;101703.77;1550172;88;22686;-79
2022/03/27 11:26:34;;;;;;;2.70;1.40;;;;;;;12.67;16.22;101709.75;1482943;87;21440;-79
2022/03/27 11:29:05;;;;;;;3.30;1.10;;;;;;;13.20;17.50;101708.27;1489791;87;21418;-79
2022/03/27 11:31:37;;;;;;;1.50;0.97;;;;;;;13.17;16.09;101712.03;1477043;87;21463;-79
2022/03/27 11:34:12;;;;;;;3.83;1.10;;;;;;;12.97;15.83;101708.44;1487465;87;21404;-79
2022/03/27 11:36:44;;;;;;;3.70;1.07;;;;;;;12.73;16.34;101702.58;1469767;88;21417;-79
2022/03/27 11:39:33;;;;;;;2.40;0.90;;;;;;;12.69;16.09;101702.47;1503979;88;23364;-79